Heathrow, Florida
Current Conditions -  °F | °C
As of 6:53 AM on Friday 31 Oct 2014 (Local Time) from KSFB Reporting Station
Overcast Overcast  
Wind Chill: 67°   Ceiling: 2000
Heat Index: 67°   Visibility: 10mi
Dew Point: 63°   Wind: 5mph
Humidity: 87%   Direction: 320°NW
Pressure: 29.85"   Gusts: NA
Location:  28.7595°N, 81.3431°W
Report Text: KSFB 311053Z 32004KT 10SM BKN020 OVC060 19/17 A2985 RMK AO2 SLP105 T01940172
Loading
Personal Weather Stations






























Interactive Weather Map New forecast layout! Learn more

10-Day Weather Forecast

Advertisements
Track Severe Weather on mobile